Pine Bush, New York
Current Conditions -  °F | °C
As of 9:54 AM on Friday 19 Dec 2014 (Local Time) from KMGJ Reporting Station
Overcast Overcast  
Wind Chill: 23°   Ceiling: 3600
Heat Index: 33°   Visibility: 10mi
Dew Point: 19°   Wind: 15mph
Humidity: 56%   Direction: 310°NW
Pressure: 30.06"   Gusts: 20mph
Location:  41.61°N, 74.3°W
Report Text: KMGJ 191454Z AUTO 31013G17KT 10SM OVC036 01/M07 A3006 RMK AO2 SLP181 T00061072 53023 TSNO
Loading
Personal Weather Stations






























Interactive Weather Map New forecast layout! Learn more

10-Day Weather Forecast

Advertisements
Track Severe Weather on mobile